Overview Statistics Trail Chart Weather Telemetry Raw packets
 

This is the latest recevied weather packets stored in our database for station/object OK1VOF-13. If no packets are shown the sender has not sent any weather packets the latest 10 day(s).

<< 56 57 58 59 60 61 62 >>
Time Temp. Humidity Pressure Rain* Wind** Luminosity Snow
1787832761 26.67° C 49% 1020.9 hPa 0 mm - - -
1787831865 26.11° C 51% 1021 hPa 0 mm - - -
1787831566 26.11° C 51% 1021.1 hPa 0 mm - - -
1787831267 25.56° C 52% 1021.1 hPa 0 mm - - -
1787830969 25.56° C 51% 1021.2 hPa 0 mm - - -
1787830066 25° C 52% 1021.2 hPa 0 mm - - -
1787829767 25° C 53% 1021.2 hPa 0 mm - - -
1787829475 24.44° C 54% 1021.3 hPa 0 mm - - -
1787829176 24.44° C 53% 1021.3 hPa 0 mm - - -
1787828282 24.44° C 54% 1021.5 hPa 0 mm - - -
1787827077 23.89° C 56% 1021.5 hPa 0 mm - - -
1787826785 23.89° C 57% 1021.6 hPa 0 mm - - -
1787825590 23.33° C 58% 1021.6 hPa 0 mm - - -
1787824694 22.78° C 59% 1021.6 hPa 0 mm - - -
1787824395 22.78° C 59% 1021.7 hPa 0 mm - - -
1787823797 22.22° C 60% 1021.8 hPa 0 mm - - -
1787823498 22.22° C 60% 1021.8 hPa 0 mm - - -
1787823200 22.22° C 60% 1021.9 hPa 0 mm - - -
1787822595 21.67° C 61% 1021.8 hPa 0 mm - - -
1787819614 20.56° C 67% 1021.9 hPa 0 mm - - -
1787819315 20° C 68% 1022 hPa 0 mm - - -
1787819016 20° C 68% 1022 hPa 0 mm - - -
1787818717 20° C 69% 1022.1 hPa 0 mm - - -
1787817223 18.89° C 73% 1022.2 hPa 0 mm - - -
1787816925 18.89° C 74% 1022.2 hPa 0 mm - - -

* Rain latest hour (hover to see other rain measurements)
** Current wind speed in m/s (hover to see current wind gust speed)